sensor_id;sensor_type;location;lat;lon;timestamp;P1;durP1;ratioP1;P2;durP2;ratioP2
74658;SDS011;63186;51.204;6.536;2022-10-19T00:00:42;12.20;;;5.50;;
74658;SDS011;63186;51.204;6.536;2022-10-19T00:03:07;9.37;;;4.23;;
74658;SDS011;63186;51.204;6.536;2022-10-19T00:05:33;10.20;;;3.67;;
74658;SDS011;63186;51.204;6.536;2022-10-19T00:07:58;11.40;;;4.60;;
74658;SDS011;63186;51.204;6.536;2022-10-19T00:10:25;13.32;;;4.50;;
74658;SDS011;63186;51.204;6.536;2022-10-19T00:12:51;11.23;;;4.55;;
74658;SDS011;63186;51.204;6.536;2022-10-19T00:15:16;10.80;;;4.53;;
74658;SDS011;63186;51.204;6.536;2022-10-19T00:17:41;10.00;;;4.35;;
74658;SDS011;63186;51.204;6.536;2022-10-19T00:20:07;9.13;;;4.78;;
74658;SDS011;63186;51.204;6.536;2022-10-19T00:22:33;9.70;;;3.78;;
74658;SDS011;63186;51.204;6.536;2022-10-19T00:24:58;11.80;;;4.57;;
74658;SDS011;63186;51.204;6.536;2022-10-19T00:27:23;9.73;;;3.60;;
74658;SDS011;63186;51.204;6.536;2022-10-19T00:29:49;6.83;;;3.40;;
74658;SDS011;63186;51.204;6.536;2022-10-19T00:32:14;8.33;;;2.93;;
74658;SDS011;63186;51.204;6.536;2022-10-19T00:34:39;8.43;;;3.37;;
74658;SDS011;63186;51.204;6.536;2022-10-19T00:37:04;8.63;;;3.30;;
74658;SDS011;63186;51.204;6.536;2022-10-19T00:39:30;8.23;;;3.60;;
74658;SDS011;63186;51.204;6.536;2022-10-19T00:41:55;10.27;;;3.60;;
74658;SDS011;63186;51.204;6.536;2022-10-19T00:46:58;7.22;;;3.83;;
74658;SDS011;63186;51.204;6.536;2022-10-19T00:49:28;9.95;;;3.85;;
74658;SDS011;63186;51.204;6.536;2022-10-19T00:51:56;9.73;;;3.42;;
74658;SDS011;63186;51.204;6.536;2022-10-19T00:54:25;8.90;;;4.35;;
74658;SDS011;63186;51.204;6.536;2022-10-19T00:56:51;10.45;;;4.13;;
74658;SDS011;63186;51.204;6.536;2022-10-19T00:59:19;9.75;;;5.78;;
74658;SDS011;63186;51.204;6.536;2022-10-19T01:01:46;11.07;;;3.88;;
74658;SDS011;63186;51.204;6.536;2022-10-19T01:04:12;10.05;;;4.30;;
74658;SDS011;63186;51.204;6.536;2022-10-19T01:06:38;9.93;;;6.90;;
74658;SDS011;63186;51.204;6.536;2022-10-19T01:09:05;10.40;;;4.43;;
74658;SDS011;63186;51.204;6.536;2022-10-19T01:11:46;8.98;;;4.40;;
74658;SDS011;63186;51.204;6.536;2022-10-19T01:22:36;7.70;;;4.10;;
74658;SDS011;63186;51.204;6.536;2022-10-19T01:25:21;8.55;;;4.10;;
74658;SDS011;63186;51.204;6.536;2022-10-19T01:39:22;10.43;;;3.22;;
74658;SDS011;63186;51.204;6.536;2022-10-19T01:44:27;7.38;;;2.95;;
74658;SDS011;63186;51.204;6.536;2022-10-19T01:47:17;7.60;;;3.50;;
74658;SDS011;63186;51.204;6.536;2022-10-19T01:49:52;7.72;;;3.75;;
74658;SDS011;63186;51.204;6.536;2022-10-19T01:52:32;10.73;;;4.15;;
74658;SDS011;63186;51.204;6.536;2022-10-19T01:54:59;9.38;;;5.00;;
74658;SDS011;63186;51.204;6.536;2022-10-19T01:57:29;9.27;;;3.83;;
74658;SDS011;63186;51.204;6.536;2022-10-19T01:59:57;10.90;;;3.90;;
74658;SDS011;63186;51.204;6.536;2022-10-19T02:02:24;8.65;;;3.78;;
74658;SDS011;63186;51.204;6.536;2022-10-19T02:07:18;6.18;;;3.65;;
74658;SDS011;63186;51.204;6.536;2022-10-19T02:09:45;6.78;;;3.55;;
74658;SDS011;63186;51.204;6.536;2022-10-19T02:12:11;8.00;;;4.03;;
74658;SDS011;63186;51.204;6.536;2022-10-19T02:14:45;14.77;;;4.43;;
74658;SDS011;63186;51.204;6.536;2022-10-19T02:17:14;7.50;;;4.55;;
74658;SDS011;63186;51.204;6.536;2022-10-19T02:19:43;10.25;;;3.28;;
74658;SDS011;63186;51.204;6.536;2022-10-19T02:22:08;8.60;;;3.00;;
74658;SDS011;63186;51.204;6.536;2022-10-19T02:24:34;9.52;;;4.32;;
74658;SDS011;63186;51.204;6.536;2022-10-19T02:27:00;8.13;;;3.80;;
74658;SDS011;63186;51.204;6.536;2022-10-19T02:29:28;6.07;;;2.92;;
74658;SDS011;63186;51.204;6.536;2022-10-19T02:31:53;6.50;;;3.03;;
74658;SDS011;63186;51.204;6.536;2022-10-19T02:34:19;7.28;;;2.75;;
74658;SDS011;63186;51.204;6.536;2022-10-19T02:36:44;5.70;;;3.03;;
74658;SDS011;63186;51.204;6.536;2022-10-19T02:39:09;6.75;;;2.92;;
74658;SDS011;63186;51.204;6.536;2022-10-19T02:41:36;9.15;;;4.32;;
74658;SDS011;63186;51.204;6.536;2022-10-19T02:44:11;7.13;;;3.10;;
74658;SDS011;63186;51.204;6.536;2022-10-19T02:46:43;7.88;;;3.47;;
74658;SDS011;63186;51.204;6.536;2022-10-19T02:49:13;10.82;;;3.80;;
74658;SDS011;63186;51.204;6.536;2022-10-19T02:51:53;9.82;;;3.70;;
74658;SDS011;63186;51.204;6.536;2022-10-19T02:54:20;7.90;;;3.75;;
74658;SDS011;63186;51.204;6.536;2022-10-19T02:56:47;8.63;;;4.53;;
74658;SDS011;63186;51.204;6.536;2022-10-19T02:59:13;8.63;;;4.83;;
74658;SDS011;63186;51.204;6.536;2022-10-19T03:01:38;9.27;;;3.90;;
74658;SDS011;63186;51.204;6.536;2022-10-19T03:04:03;9.15;;;4.32;;
74658;SDS011;63186;51.204;6.536;2022-10-19T03:06:29;8.87;;;3.90;;
74658;SDS011;63186;51.204;6.536;2022-10-19T03:08:54;9.03;;;3.47;;
74658;SDS011;63186;51.204;6.536;2022-10-19T03:11:19;9.35;;;3.00;;
74658;SDS011;63186;51.204;6.536;2022-10-19T03:13:45;10.48;;;3.72;;
74658;SDS011;63186;51.204;6.536;2022-10-19T03:16:10;6.37;;;2.70;;
74658;SDS011;63186;51.204;6.536;2022-10-19T03:18:37;8.35;;;3.30;;
74658;SDS011;63186;51.204;6.536;2022-10-19T03:21:10;8.27;;;3.55;;
74658;SDS011;63186;51.204;6.536;2022-10-19T03:23:37;10.02;;;3.45;;
74658;SDS011;63186;51.204;6.536;2022-10-19T03:26:04;8.38;;;3.78;;
74658;SDS011;63186;51.204;6.536;2022-10-19T03:28:30;9.52;;;4.60;;
74658;SDS011;63186;51.204;6.536;2022-10-19T03:30:56;10.45;;;4.40;;
74658;SDS011;63186;51.204;6.536;2022-10-19T03:33:21;10.63;;;3.85;;
74658;SDS011;63186;51.204;6.536;2022-10-19T03:35:47;9.60;;;4.70;;
74658;SDS011;63186;51.204;6.536;2022-10-19T03:38:12;9.40;;;3.93;;
74658;SDS011;63186;51.204;6.536;2022-10-19T03:40:38;10.80;;;3.85;;
74658;SDS011;63186;51.204;6.536;2022-10-19T03:43:03;8.63;;;3.88;;
74658;SDS011;63186;51.204;6.536;2022-10-19T03:45:29;6.35;;;3.85;;
74658;SDS011;63186;51.204;6.536;2022-10-19T03:47:54;7.10;;;3.67;;
74658;SDS011;63186;51.204;6.536;2022-10-19T03:50:19;5.20;;;2.70;;
74658;SDS011;63186;51.204;6.536;2022-10-19T03:52:45;7.45;;;2.90;;
74658;SDS011;63186;51.204;6.536;2022-10-19T03:55:10;8.25;;;3.70;;
74658;SDS011;63186;51.204;6.536;2022-10-19T03:57:36;29.07;;;5.60;;
74658;SDS011;63186;51.204;6.536;2022-10-19T04:00:05;26.40;;;4.45;;
74658;SDS011;63186;51.204;6.536;2022-10-19T04:02:31;6.70;;;3.58;;
74658;SDS011;63186;51.204;6.536;2022-10-19T04:04:56;5.83;;;3.40;;
74658;SDS011;63186;51.204;6.536;2022-10-19T04:07:21;5.07;;;2.73;;
74658;SDS011;63186;51.204;6.536;2022-10-19T04:09:46;6.13;;;3.10;;
74658;SDS011;63186;51.204;6.536;2022-10-19T04:12:12;6.73;;;3.10;;
74658;SDS011;63186;51.204;6.536;2022-10-19T04:14:37;7.90;;;3.33;;
74658;SDS011;63186;51.204;6.536;2022-10-19T04:17:02;6.93;;;4.47;;
74658;SDS011;63186;51.204;6.536;2022-10-19T04:19:28;8.25;;;3.40;;
74658;SDS011;63186;51.204;6.536;2022-10-19T04:21:54;8.77;;;3.40;;
74658;SDS011;63186;51.204;6.536;2022-10-19T04:24:19;9.33;;;3.20;;
74658;SDS011;63186;51.204;6.536;2022-10-19T04:26:46;21.35;;;4.30;;
74658;SDS011;63186;51.204;6.536;2022-10-19T04:29:13;23.60;;;5.45;;
74658;SDS011;63186;51.204;6.536;2022-10-19T04:31:39;93.10;;;11.25;;
74658;SDS011;63186;51.204;6.536;2022-10-19T04:34:05;55.50;;;8.07;;
74658;SDS011;63186;51.204;6.536;2022-10-19T04:36:31;33.22;;;6.82;;
74658;SDS011;63186;51.204;6.536;2022-10-19T04:38:57;23.27;;;8.25;;
74658;SDS011;63186;51.204;6.536;2022-10-19T04:41:22;20.83;;;9.13;;
74658;SDS011;63186;51.204;6.536;2022-10-19T04:43:48;17.60;;;7.72;;
74658;SDS011;63186;51.204;6.536;2022-10-19T04:46:18;35.22;;;14.30;;
74658;SDS011;63186;51.204;6.536;2022-10-19T04:48:44;29.02;;;12.68;;
74658;SDS011;63186;51.204;6.536;2022-10-19T04:51:11;26.70;;;11.85;;
74658;SDS011;63186;51.204;6.536;2022-10-19T04:53:39;27.60;;;8.48;;
74658;SDS011;63186;51.204;6.536;2022-10-19T04:56:10;19.67;;;8.13;;
74658;SDS011;63186;51.204;6.536;2022-10-19T04:58:37;19.35;;;8.25;;
74658;SDS011;63186;51.204;6.536;2022-10-19T05:01:16;50.78;;;11.45;;
74658;SDS011;63186;51.204;6.536;2022-10-19T05:06:09;21.75;;;7.43;;
74658;SDS011;63186;51.204;6.536;2022-10-19T05:08:36;37.55;;;8.68;;
74658;SDS011;63186;51.204;6.536;2022-10-19T05:11:02;36.38;;;7.82;;
74658;SDS011;63186;51.204;6.536;2022-10-19T05:13:30;18.00;;;6.95;;
74658;SDS011;63186;51.204;6.536;2022-10-19T05:15:57;12.52;;;6.28;;
74658;SDS011;63186;51.204;6.536;2022-10-19T05:18:24;11.68;;;6.10;;
74658;SDS011;63186;51.204;6.536;2022-10-19T05:20:49;9.55;;;4.93;;
74658;SDS011;63186;51.204;6.536;2022-10-19T05:23:14;10.73;;;5.07;;
74658;SDS011;63186;51.204;6.536;2022-10-19T05:25:40;9.77;;;4.80;;
74658;SDS011;63186;51.204;6.536;2022-10-19T05:28:05;11.23;;;6.00;;
74658;SDS011;63186;51.204;6.536;2022-10-19T05:30:30;13.00;;;5.07;;
74658;SDS011;63186;51.204;6.536;2022-10-19T05:32:56;7.72;;;3.75;;
74658;SDS011;63186;51.204;6.536;2022-10-19T05:35:21;9.18;;;4.05;;
74658;SDS011;63186;51.204;6.536;2022-10-19T05:37:47;6.83;;;4.00;;
74658;SDS011;63186;51.204;6.536;2022-10-19T05:40:12;8.90;;;4.07;;
74658;SDS011;63186;51.204;6.536;2022-10-19T05:42:37;10.70;;;4.20;;
74658;SDS011;63186;51.204;6.536;2022-10-19T05:45:03;8.60;;;3.90;;
74658;SDS011;63186;51.204;6.536;2022-10-19T05:47:28;7.22;;;4.00;;
74658;SDS011;63186;51.204;6.536;2022-10-19T05:49:53;8.33;;;4.40;;
74658;SDS011;63186;51.204;6.536;2022-10-19T05:52:19;11.90;;;5.33;;
74658;SDS011;63186;51.204;6.536;2022-10-19T05:54:44;11.37;;;4.73;;
74658;SDS011;63186;51.204;6.536;2022-10-19T05:57:09;9.03;;;4.13;;
74658;SDS011;63186;51.204;6.536;2022-10-19T05:59:34;8.77;;;4.43;;
74658;SDS011;63186;51.204;6.536;2022-10-19T06:02:00;29.80;;;5.77;;
74658;SDS011;63186;51.204;6.536;2022-10-19T06:04:25;36.43;;;7.13;;
74658;SDS011;63186;51.204;6.536;2022-10-19T06:06:50;115.20;;;16.20;;
74658;SDS011;63186;51.204;6.536;2022-10-19T06:09:16;191.70;;;21.58;;
74658;SDS011;63186;51.204;6.536;2022-10-19T06:11:41;65.68;;;12.88;;
74658;SDS011;63186;51.204;6.536;2022-10-19T06:14:09;23.90;;;7.22;;
74658;SDS011;63186;51.204;6.536;2022-10-19T06:16:37;25.00;;;10.25;;
74658;SDS011;63186;51.204;6.536;2022-10-19T06:19:03;19.58;;;8.45;;
74658;SDS011;63186;51.204;6.536;2022-10-19T06:21:30;20.80;;;10.40;;
74658;SDS011;63186;51.204;6.536;2022-10-19T06:23:57;19.52;;;9.48;;
74658;SDS011;63186;51.204;6.536;2022-10-19T06:26:24;14.32;;;7.95;;
74658;SDS011;63186;51.204;6.536;2022-10-19T06:28:50;12.50;;;6.97;;
74658;SDS011;63186;51.204;6.536;2022-10-19T06:31:19;12.95;;;5.75;;
74658;SDS011;63186;51.204;6.536;2022-10-19T06:33:44;10.17;;;6.07;;
74658;SDS011;63186;51.204;6.536;2022-10-19T06:36:14;9.45;;;4.88;;
74658;SDS011;63186;51.204;6.536;2022-10-19T06:38:44;13.95;;;6.30;;
74658;SDS011;63186;51.204;6.536;2022-10-19T06:41:10;26.73;;;9.60;;
74658;SDS011;63186;51.204;6.536;2022-10-19T06:43:36;93.60;;;14.43;;
74658;SDS011;63186;51.204;6.536;2022-10-19T06:46:05;128.45;;;18.10;;
74658;SDS011;63186;51.204;6.536;2022-10-19T06:48:31;56.03;;;11.45;;
74658;SDS011;63186;51.204;6.536;2022-10-19T06:50:57;34.85;;;10.63;;
74658;SDS011;63186;51.204;6.536;2022-10-19T06:53:23;24.70;;;12.02;;
74658;SDS011;63186;51.204;6.536;2022-10-19T06:55:49;34.17;;;9.75;;
74658;SDS011;63186;51.204;6.536;2022-10-19T06:58:14;17.70;;;9.53;;
74658;SDS011;63186;51.204;6.536;2022-10-19T07:00:39;28.53;;;7.10;;
74658;SDS011;63186;51.204;6.536;2022-10-19T07:03:05;19.05;;;8.55;;
74658;SDS011;63186;51.204;6.536;2022-10-19T07:05:30;11.23;;;6.50;;
74658;SDS011;63186;51.204;6.536;2022-10-19T07:07:56;13.03;;;7.50;;
74658;SDS011;63186;51.204;6.536;2022-10-19T07:10:22;11.57;;;6.10;;
74658;SDS011;63186;51.204;6.536;2022-10-19T07:12:47;15.68;;;7.75;;
74658;SDS011;63186;51.204;6.536;2022-10-19T07:15:12;13.47;;;7.77;;
74658;SDS011;63186;51.204;6.536;2022-10-19T07:17:38;29.30;;;6.95;;
74658;SDS011;63186;51.204;6.536;2022-10-19T07:20:03;12.77;;;6.13;;
74658;SDS011;63186;51.204;6.536;2022-10-19T07:22:29;10.45;;;4.97;;
74658;SDS011;63186;51.204;6.536;2022-10-19T07:24:54;13.87;;;6.80;;
74658;SDS011;63186;51.204;6.536;2022-10-19T07:27:19;10.77;;;5.60;;
74658;SDS011;63186;51.204;6.536;2022-10-19T07:29:45;12.50;;;5.80;;
74658;SDS011;63186;51.204;6.536;2022-10-19T07:32:10;11.43;;;5.07;;
74658;SDS011;63186;51.204;6.536;2022-10-19T07:34:35;14.83;;;6.60;;
74658;SDS011;63186;51.204;6.536;2022-10-19T07:37:00;18.23;;;7.50;;
74658;SDS011;63186;51.204;6.536;2022-10-19T07:39:26;12.20;;;7.53;;
74658;SDS011;63186;51.204;6.536;2022-10-19T07:41:51;11.13;;;6.45;;
74658;SDS011;63186;51.204;6.536;2022-10-19T07:44:16;12.25;;;6.82;;
74658;SDS011;63186;51.204;6.536;2022-10-19T07:46:42;13.32;;;7.05;;
74658;SDS011;63186;51.204;6.536;2022-10-19T07:49:09;12.02;;;6.60;;
74658;SDS011;63186;51.204;6.536;2022-10-19T07:51:38;13.95;;;7.32;;
74658;SDS011;63186;51.204;6.536;2022-10-19T07:54:04;15.38;;;6.82;;
74658;SDS011;63186;51.204;6.536;2022-10-19T07:56:29;16.98;;;7.20;;
74658;SDS011;63186;51.204;6.536;2022-10-19T07:58:56;16.85;;;6.93;;
74658;SDS011;63186;51.204;6.536;2022-10-19T08:01:26;13.95;;;7.93;;
74658;SDS011;63186;51.204;6.536;2022-10-19T08:03:54;16.67;;;7.78;;
74658;SDS011;63186;51.204;6.536;2022-10-19T08:06:20;17.15;;;8.13;;
74658;SDS011;63186;51.204;6.536;2022-10-19T08:08:47;13.88;;;8.65;;
74658;SDS011;63186;51.204;6.536;2022-10-19T08:11:20;20.48;;;8.25;;
74658;SDS011;63186;51.204;6.536;2022-10-19T08:13:46;22.25;;;8.10;;
74658;SDS011;63186;51.204;6.536;2022-10-19T08:16:25;18.95;;;8.05;;
74658;SDS011;63186;51.204;6.536;2022-10-19T08:18:54;18.75;;;8.90;;
74658;SDS011;63186;51.204;6.536;2022-10-19T08:21:21;16.60;;;8.23;;
74658;SDS011;63186;51.204;6.536;2022-10-19T08:23:46;34.55;;;10.55;;
74658;SDS011;63186;51.204;6.536;2022-10-19T08:26:12;18.87;;;8.57;;
74658;SDS011;63186;51.204;6.536;2022-10-19T08:28:37;16.40;;;10.48;;
74658;SDS011;63186;51.204;6.536;2022-10-19T08:31:09;18.57;;;10.17;;
74658;SDS011;63186;51.204;6.536;2022-10-19T08:33:39;22.40;;;10.20;;
74658;SDS011;63186;51.204;6.536;2022-10-19T08:36:05;19.75;;;10.27;;
74658;SDS011;63186;51.204;6.536;2022-10-19T08:38:33;19.23;;;9.65;;
74658;SDS011;63186;51.204;6.536;2022-10-19T08:41:03;20.30;;;10.68;;
74658;SDS011;63186;51.204;6.536;2022-10-19T08:43:38;16.08;;;9.13;;
74658;SDS011;63186;51.204;6.536;2022-10-19T08:46:20;16.83;;;9.05;;
74658;SDS011;63186;51.204;6.536;2022-10-19T08:48:54;15.10;;;8.82;;
74658;SDS011;63186;51.204;6.536;2022-10-19T08:51:20;18.45;;;9.38;;
74658;SDS011;63186;51.204;6.536;2022-10-19T08:56:23;17.02;;;9.52;;
74658;SDS011;63186;51.204;6.536;2022-10-19T08:59:04;17.83;;;9.00;;
74658;SDS011;63186;51.204;6.536;2022-10-19T09:01:46;18.13;;;8.55;;
74658;SDS011;63186;51.204;6.536;2022-10-19T09:09:49;18.92;;;8.60;;
74658;SDS011;63186;51.204;6.536;2022-10-19T09:12:23;15.15;;;7.88;;
74658;SDS011;63186;51.204;6.536;2022-10-19T09:14:58;15.88;;;8.40;;
74658;SDS011;63186;51.204;6.536;2022-10-19T09:17:27;18.80;;;8.55;;
74658;SDS011;63186;51.204;6.536;2022-10-19T09:19:55;14.43;;;7.55;;
74658;SDS011;63186;51.204;6.536;2022-10-19T09:22:28;17.75;;;7.88;;
74658;SDS011;63186;51.204;6.536;2022-10-19T09:25:07;14.82;;;7.72;;
74658;SDS011;63186;51.204;6.536;2022-10-19T09:27:38;15.25;;;7.13;;
74658;SDS011;63186;51.204;6.536;2022-10-19T09:30:08;12.48;;;6.80;;
74658;SDS011;63186;51.204;6.536;2022-10-19T09:32:40;12.45;;;6.28;;
74658;SDS011;63186;51.204;6.536;2022-10-19T09:35:51;10.30;;;5.80;;
74658;SDS011;63186;51.204;6.536;2022-10-19T09:37:57;13.35;;;5.53;;
74658;SDS011;63186;51.204;6.536;2022-10-19T09:40:24;12.00;;;6.35;;
74658;SDS011;63186;51.204;6.536;2022-10-19T09:42:52;12.35;;;6.25;;
74658;SDS011;63186;51.204;6.536;2022-10-19T09:48:14;12.75;;;6.28;;
74658;SDS011;63186;51.204;6.536;2022-10-19T09:50:44;14.10;;;7.32;;
74658;SDS011;63186;51.204;6.536;2022-10-19T09:53:18;10.18;;;4.78;;
74658;SDS011;63186;51.204;6.536;2022-10-19T09:55:50;11.43;;;5.05;;
74658;SDS011;63186;51.204;6.536;2022-10-19T09:58:23;15.75;;;5.55;;
74658;SDS011;63186;51.204;6.536;2022-10-19T10:00:50;12.52;;;5.00;;
74658;SDS011;63186;51.204;6.536;2022-10-19T10:03:23;9.63;;;4.55;;
74658;SDS011;63186;51.204;6.536;2022-10-19T10:05:51;13.98;;;5.03;;
74658;SDS011;63186;51.204;6.536;2022-10-19T10:08:18;16.83;;;6.03;;
74658;SDS011;63186;51.204;6.536;2022-10-19T10:11:22;10.75;;;4.95;;
74658;SDS011;63186;51.204;6.536;2022-10-19T10:13:43;10.63;;;5.20;;
74658;SDS011;63186;51.204;6.536;2022-10-19T10:16:14;12.45;;;5.05;;
74658;SDS011;63186;51.204;6.536;2022-10-19T10:18:48;12.55;;;4.60;;
74658;SDS011;63186;51.204;6.536;2022-10-19T10:21:22;13.13;;;4.82;;
74658;SDS011;63186;51.204;6.536;2022-10-19T10:26:48;12.48;;;5.15;;
74658;SDS011;63186;51.204;6.536;2022-10-19T10:29:19;14.35;;;5.88;;
74658;SDS011;63186;51.204;6.536;2022-10-19T10:31:45;14.07;;;5.22;;
74658;SDS011;63186;51.204;6.536;2022-10-19T10:37:26;13.15;;;4.88;;
74658;SDS011;63186;51.204;6.536;2022-10-19T10:39:55;9.88;;;5.40;;
74658;SDS011;63186;51.204;6.536;2022-10-19T10:42:27;14.02;;;5.25;;
74658;SDS011;63186;51.204;6.536;2022-10-19T10:44:56;11.52;;;5.97;;
74658;SDS011;63186;51.204;6.536;2022-10-19T10:47:22;11.95;;;5.07;;
74658;SDS011;63186;51.204;6.536;2022-10-19T10:49:52;9.63;;;4.45;;
74658;SDS011;63186;51.204;6.536;2022-10-19T10:52:20;13.35;;;4.70;;
74658;SDS011;63186;51.204;6.536;2022-10-19T10:55:03;13.85;;;4.78;;
74658;SDS011;63186;51.204;6.536;2022-10-19T10:57:43;10.30;;;4.55;;
74658;SDS011;63186;51.204;6.536;2022-10-19T11:00:10;10.63;;;4.70;;
74658;SDS011;63186;51.204;6.536;2022-10-19T11:02:47;10.77;;;5.05;;
74658;SDS011;63186;51.204;6.536;2022-10-19T11:05:19;11.35;;;4.80;;
74658;SDS011;63186;51.204;6.536;2022-10-19T11:08:21;12.48;;;4.97;;
74658;SDS011;63186;51.204;6.536;2022-10-19T11:10:56;13.10;;;4.35;;
74658;SDS011;63186;51.204;6.536;2022-10-19T11:13:40;8.98;;;4.00;;
74658;SDS011;63186;51.204;6.536;2022-10-19T11:16:21;11.13;;;4.03;;
74658;SDS011;63186;51.204;6.536;2022-10-19T11:21:21;8.75;;;3.53;;
74658;SDS011;63186;51.204;6.536;2022-10-19T11:23:58;10.23;;;4.03;;
74658;SDS011;63186;51.204;6.536;2022-10-19T11:29:48;7.32;;;2.85;;
74658;SDS011;63186;51.204;6.536;2022-10-19T11:33:21;9.50;;;3.33;;
74658;SDS011;63186;51.204;6.536;2022-10-19T11:46:55;6.20;;;2.20;;
74658;SDS011;63186;51.204;6.536;2022-10-19T11:49:31;7.07;;;2.28;;
74658;SDS011;63186;51.204;6.536;2022-10-19T11:52:16;6.53;;;2.75;;
74658;SDS011;63186;51.204;6.536;2022-10-19T11:55:00;6.38;;;2.55;;
74658;SDS011;63186;51.204;6.536;2022-10-19T11:57:30;6.55;;;2.60;;
74658;SDS011;63186;51.204;6.536;2022-10-19T12:00:07;7.97;;;2.83;;
74658;SDS011;63186;51.204;6.536;2022-10-19T12:05:18;7.53;;;2.28;;
74658;SDS011;63186;51.204;6.536;2022-10-19T12:11:07;7.63;;;2.78;;
74658;SDS011;63186;51.204;6.536;2022-10-19T12:13:49;7.93;;;2.08;;
74658;SDS011;63186;51.204;6.536;2022-10-19T12:16:19;7.82;;;2.30;;
74658;SDS011;63186;51.204;6.536;2022-10-19T12:18:49;8.70;;;3.15;;
74658;SDS011;63186;51.204;6.536;2022-10-19T12:21:25;9.52;;;2.90;;
74658;SDS011;63186;51.204;6.536;2022-10-19T12:23:54;7.03;;;2.58;;
74658;SDS011;63186;51.204;6.536;2022-10-19T12:26:22;7.82;;;2.63;;
74658;SDS011;63186;51.204;6.536;2022-10-19T12:28:54;7.70;;;2.42;;
74658;SDS011;63186;51.204;6.536;2022-10-19T12:31:26;5.10;;;2.15;;
74658;SDS011;63186;51.204;6.536;2022-10-19T12:39:24;5.95;;;1.67;;
74658;SDS011;63186;51.204;6.536;2022-10-19T12:41:55;5.18;;;1.92;;
74658;SDS011;63186;51.204;6.536;2022-10-19T12:47:14;4.95;;;1.50;;
74658;SDS011;63186;51.204;6.536;2022-10-19T12:49:44;4.90;;;1.85;;
74658;SDS011;63186;51.204;6.536;2022-10-19T12:57:40;4.43;;;1.40;;
74658;SDS011;63186;51.204;6.536;2022-10-19T13:00:19;6.80;;;1.58;;
74658;SDS011;63186;51.204;6.536;2022-10-19T13:02:47;5.07;;;1.50;;
74658;SDS011;63186;51.204;6.536;2022-10-19T13:05:22;5.88;;;1.63;;
74658;SDS011;63186;51.204;6.536;2022-10-19T13:07:49;3.95;;;1.38;;
74658;SDS011;63186;51.204;6.536;2022-10-19T13:10:19;5.45;;;1.40;;
74658;SDS011;63186;51.204;6.536;2022-10-19T13:12:47;4.07;;;1.25;;
74658;SDS011;63186;51.204;6.536;2022-10-19T13:18:03;5.95;;;1.30;;
74658;SDS011;63186;51.204;6.536;2022-10-19T13:38:32;6.30;;;1.10;;
74658;SDS011;63186;51.204;6.536;2022-10-19T13:41:05;4.47;;;1.23;;
74658;SDS011;63186;51.204;6.536;2022-10-19T13:48:35;6.30;;;1.10;;
74658;SDS011;63186;51.204;6.536;2022-10-19T13:51:12;3.40;;;1.40;;
74658;SDS011;63186;51.204;6.536;2022-10-19T14:11:34;5.85;;;1.80;;
74658;SDS011;63186;51.204;6.536;2022-10-19T14:14:16;3.58;;;1.23;;
74658;SDS011;63186;51.204;6.536;2022-10-19T14:16:53;3.65;;;1.33;;
74658;SDS011;63186;51.204;6.536;2022-10-19T14:19:25;5.90;;;1.52;;
74658;SDS011;63186;51.204;6.536;2022-10-19T14:21:52;4.97;;;1.30;;
74658;SDS011;63186;51.204;6.536;2022-10-19T14:24:20;4.82;;;1.25;;
74658;SDS011;63186;51.204;6.536;2022-10-19T14:27:02;6.07;;;1.88;;
74658;SDS011;63186;51.204;6.536;2022-10-19T14:29:30;6.45;;;1.40;;
74658;SDS011;63186;51.204;6.536;2022-10-19T14:32:07;6.82;;;1.40;;
74658;SDS011;63186;51.204;6.536;2022-10-19T14:34:38;6.07;;;2.10;;
74658;SDS011;63186;51.204;6.536;2022-10-19T14:37:04;3.40;;;1.50;;
74658;SDS011;63186;51.204;6.536;2022-10-19T14:39:40;3.55;;;1.23;;
74658;SDS011;63186;51.204;6.536;2022-10-19T14:42:07;4.37;;;1.57;;
74658;SDS011;63186;51.204;6.536;2022-10-19T14:44:41;3.05;;;1.13;;
74658;SDS011;63186;51.204;6.536;2022-10-19T14:47:18;2.80;;;1.35;;
74658;SDS011;63186;51.204;6.536;2022-10-19T14:49:46;8.88;;;1.60;;
74658;SDS011;63186;51.204;6.536;2022-10-19T14:52:13;6.18;;;1.70;;
74658;SDS011;63186;51.204;6.536;2022-10-19T14:54:44;3.42;;;1.25;;
74658;SDS011;63186;51.204;6.536;2022-10-19T14:57:16;7.13;;;1.60;;
74658;SDS011;63186;51.204;6.536;2022-10-19T14:59:49;6.38;;;1.30;;
74658;SDS011;63186;51.204;6.536;2022-10-19T15:02:26;4.78;;;1.40;;
74658;SDS011;63186;51.204;6.536;2022-10-19T15:04:56;5.35;;;1.30;;
74658;SDS011;63186;51.204;6.536;2022-10-19T15:10:04;3.75;;;1.27;;
74658;SDS011;63186;51.204;6.536;2022-10-19T15:12:41;3.70;;;1.42;;
74658;SDS011;63186;51.204;6.536;2022-10-19T15:15:08;4.45;;;1.50;;
74658;SDS011;63186;51.204;6.536;2022-10-19T15:17:49;6.40;;;2.17;;
74658;SDS011;63186;51.204;6.536;2022-10-19T15:20:22;4.88;;;1.70;;
74658;SDS011;63186;51.204;6.536;2022-10-19T15:22:49;4.90;;;1.70;;
74658;SDS011;63186;51.204;6.536;2022-10-19T15:25:20;6.50;;;1.50;;
74658;SDS011;63186;51.204;6.536;2022-10-19T15:27:47;5.65;;;1.88;;
74658;SDS011;63186;51.204;6.536;2022-10-19T15:32:43;2.78;;;1.27;;
74658;SDS011;63186;51.204;6.536;2022-10-19T15:35:31;4.05;;;1.73;;
74658;SDS011;63186;51.204;6.536;2022-10-19T15:40:39;2.53;;;1.30;;
74658;SDS011;63186;51.204;6.536;2022-10-19T15:46:07;5.30;;;1.45;;
74658;SDS011;63186;51.204;6.536;2022-10-19T15:48:46;4.95;;;1.63;;
74658;SDS011;63186;51.204;6.536;2022-10-19T15:51:37;6.75;;;1.38;;
74658;SDS011;63186;51.204;6.536;2022-10-19T15:54:04;4.28;;;1.38;;
74658;SDS011;63186;51.204;6.536;2022-10-19T15:56:32;5.40;;;1.55;;
74658;SDS011;63186;51.204;6.536;2022-10-19T15:59:00;4.88;;;1.40;;
74658;SDS011;63186;51.204;6.536;2022-10-19T16:01:28;5.40;;;1.55;;
74658;SDS011;63186;51.204;6.536;2022-10-19T16:03:55;4.88;;;1.60;;
74658;SDS011;63186;51.204;6.536;2022-10-19T16:06:21;4.88;;;2.00;;
74658;SDS011;63186;51.204;6.536;2022-10-19T16:11:15;10.77;;;3.40;;
74658;SDS011;63186;51.204;6.536;2022-10-19T16:13:42;7.07;;;1.80;;
74658;SDS011;63186;51.204;6.536;2022-10-19T16:16:08;11.05;;;3.20;;
74658;SDS011;63186;51.204;6.536;2022-10-19T16:18:37;8.15;;;2.35;;
74658;SDS011;63186;51.204;6.536;2022-10-19T16:21:02;7.30;;;2.40;;
74658;SDS011;63186;51.204;6.536;2022-10-19T16:23:28;6.72;;;2.75;;
74658;SDS011;63186;51.204;6.536;2022-10-19T16:25:56;7.47;;;2.70;;
74658;SDS011;63186;51.204;6.536;2022-10-19T16:28:21;11.30;;;2.70;;
74658;SDS011;63186;51.204;6.536;2022-10-19T16:30:50;12.68;;;3.30;;
74658;SDS011;63186;51.204;6.536;2022-10-19T16:33:18;9.52;;;2.83;;
74658;SDS011;63186;51.204;6.536;2022-10-19T16:35:44;11.32;;;2.90;;
74658;SDS011;63186;51.204;6.536;2022-10-19T16:38:09;7.70;;;2.63;;
74658;SDS011;63186;51.204;6.536;2022-10-19T16:40:34;12.47;;;2.90;;
74658;SDS011;63186;51.204;6.536;2022-10-19T16:43:00;10.27;;;2.80;;
74658;SDS011;63186;51.204;6.536;2022-10-19T16:45:26;6.60;;;2.60;;
74658;SDS011;63186;51.204;6.536;2022-10-19T16:47:51;6.60;;;2.80;;
74658;SDS011;63186;51.204;6.536;2022-10-19T16:50:17;8.55;;;2.60;;
74658;SDS011;63186;51.204;6.536;2022-10-19T16:52:42;10.73;;;2.95;;
74658;SDS011;63186;51.204;6.536;2022-10-19T16:55:08;7.93;;;2.90;;
74658;SDS011;63186;51.204;6.536;2022-10-19T16:57:33;6.05;;;2.58;;
74658;SDS011;63186;51.204;6.536;2022-10-19T16:59:59;9.60;;;3.20;;
74658;SDS011;63186;51.204;6.536;2022-10-19T17:02:24;9.00;;;3.53;;
74658;SDS011;63186;51.204;6.536;2022-10-19T17:04:50;8.45;;;3.40;;
74658;SDS011;63186;51.204;6.536;2022-10-19T17:07:15;9.63;;;3.20;;
74658;SDS011;63186;51.204;6.536;2022-10-19T17:09:41;8.88;;;3.15;;
74658;SDS011;63186;51.204;6.536;2022-10-19T17:12:07;8.40;;;3.40;;